Chama, NM

1:29 PM MDT on September 23, 2014 (GMT -0600)
Wolf Creek Pass | Change Station
CLOSE
Current Station
Airport
Location: Wolf Creek Pass,
Elevation: 11759 ft
Nearby Weather Stations

Elev 11759 ft 37.45 °N, 106.80 °W | Updated 11 minutes ago

Partly Cloudy
Partly Cloudy
46 °F
Feels Like 42 °F
N
10
Wind Variable Wind from SW
Gusts 20 mph

Today
High -- | Low -- °F
--% Chance of Precip.
Yesterday
High -- | Low -- °F
Precip. -- in
6:55 AM 7:01 PM
Waning Crescent, 0% visible
Pressure 30.62 in
Visibility 10.0 miles
Clouds Scattered Clouds 2700 ft
Scattered Clouds 3700 ft
Scattered Clouds 4200 ft
Windchill 42 °F
Dew Point 36 °F
Humidity 66%
Rainfall 0.00 in
Snow Depth 0 in , 0 in , 2 in
UV 8 out of 12
Pollen 5.40 out of 12
Air Quality Not available.
Flu Activity Not available.
METAR KCPW 231918Z AUTO 22009G17KT 191V251 10SM SCT027 SCT037 SCT042 08/02 A3062 RMK AO2

More Conditions Fewer Conditions

Pressure 30.62 in
Visibility 10.0 miles
Clouds Scattered Clouds 2700 ft
Scattered Clouds 3700 ft
Scattered Clouds 4200 ft
Windchill 42 °F
Dew Point 36 °F
Humidity 66%
Rainfall 0.00 in
Snow Depth 0 in , 0 in , 2 in
UV 8 out of 12
Pollen 5.40 out of 12
Air Quality Not available.
Flu Activity Not available.
METAR KCPW 231918Z AUTO 22009G17KT 191V251 10SM SCT027 SCT037 SCT042 08/02 A3062 RMK AO2

More Conditions Fewer Conditions

10-Day Weather Forecast

Almanac

Astronomy

Sep. 23, 2014 Rise Set
Actual Time 6:55 AM MDT 7:01 PM MDT
Civil Twilight 6:29 AM MDT 7:27 PM MDT
Nautical Twilight 5:59 AM MDT 7:57 PM MDT
Astronomical Twilight 5:28 AM MDT 8:28 PM MDT
Moon 6:22 AM MDT 6:42 PM MDT
Length of Visible Light 12h 58m
Length of Day
12h 06m
Tomorrow will be 2m 20s shorter.
Waning Crescent, 0% of the Moon is Illuminated
Today
Waning Crescent
Sep 24
New
Oct 1
First Quarter
Oct 8
Full
Oct 15
Last Quarter

Today's Extremes

State Highs State Lows

Community

WunderPhotos

Upload Photos

1,755,784 photos uploaded!

Nearby

Snow Depth

Station Depth Elevation
Sierra Blanca 0 in 10280 ft
North Costilla 0 in 10600 ft
Silver Creek Divide 1 in 9000 ft
Wesner Springs 2 in 11120 ft
Gallegos Peak 0 in 9800 ft

Earthquake Activity

City Distance Mag. Time & Date
No recent earthquake activity has been reported nearby.
Minimum magnitude displayed is 2.5.

Coastal Water Temperatures

Place Temperature
No Stations Reporting

Nearby Weather Stations